sensor_id;sensor_type;location;lat;lon;timestamp;pressure;altitude;pressure_sealevel;temperature;humidity
16834;BME280;8533;48.426;10.868;2022-07-10T00:01:50;96863.59;;;17.01;81.51
16834;BME280;8533;48.426;10.868;2022-07-10T00:04:17;96853.30;;;16.92;83.48
16834;BME280;8533;48.426;10.868;2022-07-10T00:06:47;96856.19;;;16.88;83.63
16834;BME280;8533;48.426;10.868;2022-07-10T00:09:15;96849.87;;;16.82;82.39
16834;BME280;8533;48.426;10.868;2022-07-10T00:11:42;96849.86;;;16.79;83.72
16834;BME280;8533;48.426;10.868;2022-07-10T00:14:10;96849.08;;;16.73;85.56
16834;BME280;8533;48.426;10.868;2022-07-10T00:16:37;96845.92;;;16.66;86.01
16834;BME280;8533;48.426;10.868;2022-07-10T00:19:05;96839.86;;;16.61;86.08
16834;BME280;8533;48.426;10.868;2022-07-10T00:21:32;96838.50;;;16.58;87.95
16834;BME280;8533;48.426;10.868;2022-07-10T00:24:00;96837.70;;;16.55;87.92
16834;BME280;8533;48.426;10.868;2022-07-10T00:26:30;96829.78;;;16.55;88.69
16834;BME280;8533;48.426;10.868;2022-07-10T00:28:57;96826.36;;;16.52;89.41
16834;BME280;8533;48.426;10.868;2022-07-10T00:31:24;96821.60;;;16.49;89.40
16834;BME280;8533;48.426;10.868;2022-07-10T00:33:52;96818.44;;;16.42;88.99
16834;BME280;8533;48.426;10.868;2022-07-10T00:36:19;96815.52;;;16.38;89.66
16834;BME280;8533;48.426;10.868;2022-07-10T00:38:47;96818.98;;;16.36;90.18
16834;BME280;8533;48.426;10.868;2022-07-10T00:41:14;96819.50;;;16.33;90.68
16834;BME280;8533;48.426;10.868;2022-07-10T00:44:01;96818.16;;;16.31;90.51
16834;BME280;8533;48.426;10.868;2022-07-10T00:46:30;96812.64;;;16.27;91.64
16834;BME280;8533;48.426;10.868;2022-07-10T00:48:58;96816.84;;;16.23;90.97
16834;BME280;8533;48.426;10.868;2022-07-10T00:51:27;96816.86;;;16.18;90.89
16834;BME280;8533;48.426;10.868;2022-07-10T00:53:56;96820.28;;;16.16;91.31
16834;BME280;8533;48.426;10.868;2022-07-10T00:56:25;96819.48;;;16.16;91.38
16834;BME280;8533;48.426;10.868;2022-07-10T00:58:54;96823.98;;;16.10;91.79
16834;BME280;8533;48.426;10.868;2022-07-10T01:01:21;96819.23;;;16.05;92.27
16834;BME280;8533;48.426;10.868;2022-07-10T01:03:49;96817.36;;;16.00;91.88
16834;BME280;8533;48.426;10.868;2022-07-10T01:06:18;96811.31;;;15.97;91.89
16834;BME280;8533;48.426;10.868;2022-07-10T01:08:45;96808.67;;;15.97;92.17
16834;BME280;8533;48.426;10.868;2022-07-10T01:11:14;96791.22;;;15.91;92.15
16834;BME280;8533;48.426;10.868;2022-07-10T01:13:43;96805.48;;;15.95;91.73
16834;BME280;8533;48.426;10.868;2022-07-10T01:16:11;96805.73;;;15.86;92.21
16834;BME280;8533;48.426;10.868;2022-07-10T01:18:39;96807.84;;;15.79;91.90
16834;BME280;8533;48.426;10.868;2022-07-10T01:23:54;96808.35;;;15.71;92.41
16834;BME280;8533;48.426;10.868;2022-07-10T01:26:22;96802.27;;;15.68;92.23
16834;BME280;8533;48.426;10.868;2022-07-10T01:28:51;96800.69;;;15.69;92.82
16834;BME280;8533;48.426;10.868;2022-07-10T01:31:25;96800.17;;;15.70;92.94
16834;BME280;8533;48.426;10.868;2022-07-10T01:33:53;96805.44;;;15.70;93.38
16834;BME280;8533;48.426;10.868;2022-07-10T01:36:23;96805.17;;;15.69;93.11
16834;BME280;8533;48.426;10.868;2022-07-10T01:38:52;96805.70;;;15.68;93.33
16834;BME280;8533;48.426;10.868;2022-07-10T01:41:19;96805.69;;;15.65;93.65
16834;BME280;8533;48.426;10.868;2022-07-10T01:43:49;96807.00;;;15.65;93.63
16834;BME280;8533;48.426;10.868;2022-07-10T01:46:17;96805.44;;;15.64;93.52
16834;BME280;8533;48.426;10.868;2022-07-10T01:48:44;96804.36;;;15.65;93.67
16834;BME280;8533;48.426;10.868;2022-07-10T01:51:12;96804.12;;;15.64;93.85
16834;BME280;8533;48.426;10.868;2022-07-10T01:53:40;96801.22;;;15.63;93.92
16834;BME280;8533;48.426;10.868;2022-07-10T01:56:10;96802.50;;;15.58;93.87
16834;BME280;8533;48.426;10.868;2022-07-10T01:58:39;96803.55;;;15.57;93.65
16834;BME280;8533;48.426;10.868;2022-07-10T02:01:07;96805.14;;;15.53;93.66
16834;BME280;8533;48.426;10.868;2022-07-10T02:03:35;96795.08;;;15.48;93.74
16834;BME280;8533;48.426;10.868;2022-07-10T02:06:22;96795.06;;;15.45;93.90
16834;BME280;8533;48.426;10.868;2022-07-10T02:08:51;96795.05;;;15.43;94.07
16834;BME280;8533;48.426;10.868;2022-07-10T02:11:22;96797.42;;;15.39;94.16
16834;BME280;8533;48.426;10.868;2022-07-10T02:13:49;96791.06;;;15.35;94.72
16834;BME280;8533;48.426;10.868;2022-07-10T02:16:16;96790.27;;;15.30;94.78
16834;BME280;8533;48.426;10.868;2022-07-10T02:18:44;96792.10;;;15.24;95.13
16834;BME280;8533;48.426;10.868;2022-07-10T02:21:14;96787.84;;;15.18;95.24
16834;BME280;8533;48.426;10.868;2022-07-10T02:23:41;96785.72;;;15.12;95.17
16834;BME280;8533;48.426;10.868;2022-07-10T02:26:09;96789.11;;;15.05;95.25
16834;BME280;8533;48.426;10.868;2022-07-10T02:28:37;96797.78;;;14.98;95.33
16834;BME280;8533;48.426;10.868;2022-07-10T02:31:04;96802.48;;;14.94;95.54
16834;BME280;8533;48.426;10.868;2022-07-10T02:33:32;96809.05;;;14.88;95.69
16834;BME280;8533;48.426;10.868;2022-07-10T02:35:59;96802.93;;;14.75;95.97
16834;BME280;8533;48.426;10.868;2022-07-10T02:38:27;96807.42;;;14.80;96.61
16834;BME280;8533;48.426;10.868;2022-07-10T02:40:55;96807.94;;;14.79;96.44
16834;BME280;8533;48.426;10.868;2022-07-10T02:43:22;96801.33;;;14.77;96.37
16834;BME280;8533;48.426;10.868;2022-07-10T02:45:50;96806.86;;;14.73;96.39
16834;BME280;8533;48.426;10.868;2022-07-10T02:48:17;96798.41;;;14.71;96.26
16834;BME280;8533;48.426;10.868;2022-07-10T02:50:44;96795.78;;;14.71;97.25
16834;BME280;8533;48.426;10.868;2022-07-10T02:53:12;96804.20;;;14.70;97.07
16834;BME280;8533;48.426;10.868;2022-07-10T02:55:39;96796.03;;;14.67;96.52
16834;BME280;8533;48.426;10.868;2022-07-10T02:58:07;96798.12;;;14.65;96.97
16834;BME280;8533;48.426;10.868;2022-07-10T03:00:36;96794.14;;;14.62;97.12
16834;BME280;8533;48.426;10.868;2022-07-10T03:03:04;96790.19;;;14.62;97.13
16834;BME280;8533;48.426;10.868;2022-07-10T03:05:31;96782.82;;;14.59;96.93
16834;BME280;8533;48.426;10.868;2022-07-10T03:07:59;96790.97;;;14.58;96.65
16834;BME280;8533;48.426;10.868;2022-07-10T03:10:27;96793.05;;;14.56;96.51
16834;BME280;8533;48.426;10.868;2022-07-10T03:12:54;96793.82;;;14.54;97.63
16834;BME280;8533;48.426;10.868;2022-07-10T03:15:21;96800.65;;;14.52;97.45
16834;BME280;8533;48.426;10.868;2022-07-10T03:17:49;96797.50;;;14.50;97.41
16834;BME280;8533;48.426;10.868;2022-07-10T03:20:17;96797.47;;;14.47;97.65
16834;BME280;8533;48.426;10.868;2022-07-10T03:22:44;96799.20;;;14.37;96.70
16834;BME280;8533;48.426;10.868;2022-07-10T03:25:12;96799.20;;;14.37;96.72
16834;BME280;8533;48.426;10.868;2022-07-10T03:27:40;96798.13;;;14.35;96.49
16834;BME280;8533;48.426;10.868;2022-07-10T03:30:08;96809.95;;;14.30;96.40
16834;BME280;8533;48.426;10.868;2022-07-10T03:32:36;96812.02;;;14.28;96.38
16834;BME280;8533;48.426;10.868;2022-07-10T03:35:03;96809.67;;;14.27;96.50
16834;BME280;8533;48.426;10.868;2022-07-10T03:37:31;96809.12;;;14.27;96.80
16834;BME280;8533;48.426;10.868;2022-07-10T03:39:58;96804.10;;;14.23;96.79
16834;BME280;8533;48.426;10.868;2022-07-10T03:42:26;96808.08;;;14.26;97.18
16834;BME280;8533;48.426;10.868;2022-07-10T03:44:53;96805.17;;;14.27;96.96
16834;BME280;8533;48.426;10.868;2022-07-10T03:47:21;96809.91;;;14.25;96.92
16834;BME280;8533;48.426;10.868;2022-07-10T03:49:48;96808.08;;;14.26;96.71
16834;BME280;8533;48.426;10.868;2022-07-10T03:52:17;96803.86;;;14.25;96.69
16834;BME280;8533;48.426;10.868;2022-07-10T03:54:44;96803.86;;;14.25;96.58
16834;BME280;8533;48.426;10.868;2022-07-10T03:57:11;96808.88;;;14.26;96.84
16834;BME280;8533;48.426;10.868;2022-07-10T03:59:56;96803.61;;;14.26;97.04
16834;BME280;8533;48.426;10.868;2022-07-10T04:02:24;96802.27;;;14.24;96.53
16834;BME280;8533;48.426;10.868;2022-07-10T04:04:51;96801.44;;;14.18;96.28
16834;BME280;8533;48.426;10.868;2022-07-10T04:07:19;96797.98;;;14.15;96.16
16834;BME280;8533;48.426;10.868;2022-07-10T04:09:46;96800.86;;;14.13;96.14
16834;BME280;8533;48.426;10.868;2022-07-10T04:12:14;96807.98;;;14.16;96.45
16834;BME280;8533;48.426;10.868;2022-07-10T04:14:41;96812.77;;;14.19;96.34
16834;BME280;8533;48.426;10.868;2022-07-10T04:17:09;96813.28;;;14.21;96.24
16834;BME280;8533;48.426;10.868;2022-07-10T04:19:36;96815.12;;;14.20;96.19
16834;BME280;8533;48.426;10.868;2022-07-10T04:22:03;96817.02;;;14.25;96.11
16834;BME280;8533;48.426;10.868;2022-07-10T04:24:31;96814.41;;;14.30;95.94
16834;BME280;8533;48.426;10.868;2022-07-10T04:26:58;96811.81;;;14.32;95.81
16834;BME280;8533;48.426;10.868;2022-07-10T04:29:26;96810.77;;;14.33;95.78
16834;BME280;8533;48.426;10.868;2022-07-10T04:31:53;96811.31;;;14.38;96.08
16834;BME280;8533;48.426;10.868;2022-07-10T04:34:20;96815.08;;;14.42;96.05
16834;BME280;8533;48.426;10.868;2022-07-10T04:36:48;96815.35;;;14.43;96.10
16834;BME280;8533;48.426;10.868;2022-07-10T04:39:15;96818.78;;;14.46;96.23
16834;BME280;8533;48.426;10.868;2022-07-10T04:41:43;96819.35;;;14.53;95.82
16834;BME280;8533;48.426;10.868;2022-07-10T04:44:11;96815.92;;;14.53;95.84
16834;BME280;8533;48.426;10.868;2022-07-10T04:46:38;96816.77;;;14.61;95.90
16834;BME280;8533;48.426;10.868;2022-07-10T04:49:05;96819.42;;;14.63;95.67
16834;BME280;8533;48.426;10.868;2022-07-10T04:51:33;96822.08;;;14.68;95.61
16834;BME280;8533;48.426;10.868;2022-07-10T04:54:00;96826.06;;;14.71;95.42
16834;BME280;8533;48.426;10.868;2022-07-10T04:56:28;96819.23;;;14.72;94.88
16834;BME280;8533;48.426;10.868;2022-07-10T04:58:55;96827.12;;;14.72;94.33
16834;BME280;8533;48.426;10.868;2022-07-10T05:01:23;96826.36;;;14.74;94.47
16834;BME280;8533;48.426;10.868;2022-07-10T05:03:50;96829.03;;;14.84;94.12
16834;BME280;8533;48.426;10.868;2022-07-10T05:06:17;96825.36;;;14.83;93.85
16834;BME280;8533;48.426;10.868;2022-07-10T05:08:45;96821.93;;;14.82;93.10
16834;BME280;8533;48.426;10.868;2022-07-10T05:11:12;96824.31;;;14.86;93.43
16834;BME280;8533;48.426;10.868;2022-07-10T05:13:40;96827.47;;;14.83;93.15
16834;BME280;8533;48.426;10.868;2022-07-10T05:16:09;96830.10;;;14.86;92.94
16834;BME280;8533;48.426;10.868;2022-07-10T05:18:36;96830.37;;;14.87;92.97
16834;BME280;8533;48.426;10.868;2022-07-10T05:21:04;96824.86;;;14.88;92.01
16834;BME280;8533;48.426;10.868;2022-07-10T05:23:31;96831.20;;;14.90;91.92
16834;BME280;8533;48.426;10.868;2022-07-10T05:25:59;96834.31;;;14.82;91.63
16834;BME280;8533;48.426;10.868;2022-07-10T05:28:26;96840.41;;;14.90;91.55
16834;BME280;8533;48.426;10.868;2022-07-10T05:30:54;96833.01;;;14.87;91.38
16834;BME280;8533;48.426;10.868;2022-07-10T05:33:21;96829.60;;;14.89;90.70
16834;BME280;8533;48.426;10.868;2022-07-10T05:35:49;96828.84;;;14.96;90.70
16834;BME280;8533;48.426;10.868;2022-07-10T05:38:16;96837.55;;;14.97;90.04
16834;BME280;8533;48.426;10.868;2022-07-10T05:40:43;96843.09;;;15.00;89.36
16834;BME280;8533;48.426;10.868;2022-07-10T05:43:11;96839.66;;;14.97;89.50
16834;BME280;8533;48.426;10.868;2022-07-10T05:45:39;96832.56;;;15.03;89.29
16834;BME280;8533;48.426;10.868;2022-07-10T05:48:06;96834.48;;;15.15;88.96
16834;BME280;8533;48.426;10.868;2022-07-10T05:50:33;96831.10;;;15.27;89.13
16834;BME280;8533;48.426;10.868;2022-07-10T05:53:01;96831.42;;;15.38;88.38
16834;BME280;8533;48.426;10.868;2022-07-10T05:55:28;96827.20;;;15.42;88.27
16834;BME280;8533;48.426;10.868;2022-07-10T05:57:56;96830.66;;;15.45;85.93
16834;BME280;8533;48.426;10.868;2022-07-10T06:00:25;96831.27;;;15.65;85.79
16834;BME280;8533;48.426;10.868;2022-07-10T06:02:52;96837.33;;;15.65;84.14
16834;BME280;8533;48.426;10.868;2022-07-10T06:05:20;96829.92;;;15.57;83.44
16834;BME280;8533;48.426;10.868;2022-07-10T06:07:48;96829.99;;;15.78;83.81
16834;BME280;8533;48.426;10.868;2022-07-10T06:10:15;96832.13;;;15.88;81.43
16834;BME280;8533;48.426;10.868;2022-07-10T06:12:43;96832.92;;;15.99;81.54
16834;BME280;8533;48.426;10.868;2022-07-10T06:15:10;96828.47;;;16.17;79.75
16834;BME280;8533;48.426;10.868;2022-07-10T06:17:40;96833.75;;;16.25;78.69
16834;BME280;8533;48.426;10.868;2022-07-10T06:20:08;96826.35;;;16.39;79.14
16834;BME280;8533;48.426;10.868;2022-07-10T06:22:35;96838.25;;;16.45;79.58
16834;BME280;8533;48.426;10.868;2022-07-10T06:25:05;96834.29;;;16.52;76.71
16834;BME280;8533;48.426;10.868;2022-07-10T06:27:32;96835.34;;;16.28;77.89
16834;BME280;8533;48.426;10.868;2022-07-10T06:30:01;96843.25;;;16.18;78.51
16834;BME280;8533;48.426;10.868;2022-07-10T06:32:28;96839.03;;;16.12;77.10
16834;BME280;8533;48.426;10.868;2022-07-10T06:35:01;96839.82;;;16.18;76.62
16834;BME280;8533;48.426;10.868;2022-07-10T06:37:29;96842.98;;;16.10;77.15
16834;BME280;8533;48.426;10.868;2022-07-10T06:39:55;96845.11;;;16.28;76.22
16834;BME280;8533;48.426;10.868;2022-07-10T06:42:25;96846.94;;;16.17;76.96
16834;BME280;8533;48.426;10.868;2022-07-10T06:44:56;96848.53;;;16.18;76.62
16834;BME280;8533;48.426;10.868;2022-07-10T06:47:24;96853.01;;;16.15;76.77
16834;BME280;8533;48.426;10.868;2022-07-10T06:50:09;96860.94;;;16.23;76.75
16834;BME280;8533;48.426;10.868;2022-07-10T06:52:37;96859.11;;;16.21;78.42
16834;BME280;8533;48.426;10.868;2022-07-10T06:55:07;96863.56;;;16.15;78.18
16834;BME280;8533;48.426;10.868;2022-07-10T06:57:35;96863.57;;;16.10;77.76
16834;BME280;8533;48.426;10.868;2022-07-10T07:00:07;96867.78;;;16.03;77.50
16834;BME280;8533;48.426;10.868;2022-07-10T07:02:37;96874.09;;;15.95;78.37
16834;BME280;8533;48.426;10.868;2022-07-10T07:05:05;96872.30;;;16.13;77.20
16834;BME280;8533;48.426;10.868;2022-07-10T07:07:34;96863.59;;;16.20;76.52
16834;BME280;8533;48.426;10.868;2022-07-10T07:10:03;96861.73;;;16.18;76.96
16834;BME280;8533;48.426;10.868;2022-07-10T07:12:32;96871.50;;;16.25;75.38
16834;BME280;8533;48.426;10.868;2022-07-10T07:14:59;96867.81;;;16.39;74.81
16834;BME280;8533;48.426;10.868;2022-07-10T07:17:33;96877.07;;;16.36;74.18
16834;BME280;8533;48.426;10.868;2022-07-10T07:20:05;96874.16;;;16.43;74.72
16834;BME280;8533;48.426;10.868;2022-07-10T07:22:48;96872.31;;;16.28;75.51
16834;BME280;8533;48.426;10.868;2022-07-10T07:25:34;96872.30;;;16.26;75.46
16834;BME280;8533;48.426;10.868;2022-07-10T07:28:01;96878.38;;;16.21;76.40
16834;BME280;8533;48.426;10.868;2022-07-10T07:30:29;96880.48;;;16.32;76.37
16834;BME280;8533;48.426;10.868;2022-07-10T07:32:56;96872.83;;;16.48;75.27
16834;BME280;8533;48.426;10.868;2022-07-10T07:35:24;96875.23;;;16.80;73.66
16834;BME280;8533;48.426;10.868;2022-07-10T07:37:51;96874.34;;;17.33;71.37
16834;BME280;8533;48.426;10.868;2022-07-10T07:40:21;96870.85;;;17.45;70.60
16834;BME280;8533;48.426;10.868;2022-07-10T07:42:50;96865.85;;;17.38;69.73
16834;BME280;8533;48.426;10.868;2022-07-10T07:45:18;96871.64;;;17.45;70.46
16834;BME280;8533;48.426;10.868;2022-07-10T07:47:48;96872.76;;;17.32;69.03
16834;BME280;8533;48.426;10.868;2022-07-10T07:50:18;96875.11;;;17.41;69.02
16834;BME280;8533;48.426;10.868;2022-07-10T07:52:46;96873.99;;;17.62;67.57
16834;BME280;8533;48.426;10.868;2022-07-10T07:55:15;96873.39;;;17.80;66.17
16834;BME280;8533;48.426;10.868;2022-07-10T07:57:47;96879.05;;;17.46;67.73
16834;BME280;8533;48.426;10.868;2022-07-10T08:00:24;96870.64;;;17.29;69.18
16834;BME280;8533;48.426;10.868;2022-07-10T08:02:52;96871.72;;;17.92;67.27
16834;BME280;8533;48.426;10.868;2022-07-10T08:05:21;96870.98;;;18.28;64.00
16834;BME280;8533;48.426;10.868;2022-07-10T08:10:37;96867.84;;;18.23;65.01
16834;BME280;8533;48.426;10.868;2022-07-10T08:13:05;96866.27;;;18.17;63.74
16834;BME280;8533;48.426;10.868;2022-07-10T08:15:34;96865.00;;;18.12;63.80
16834;BME280;8533;48.426;10.868;2022-07-10T08:18:02;96866.41;;;17.97;65.23
16834;BME280;8533;48.426;10.868;2022-07-10T08:20:33;96868.75;;;18.04;62.93
16834;BME280;8533;48.426;10.868;2022-07-10T08:23:01;96875.50;;;17.78;63.48
16834;BME280;8533;48.426;10.868;2022-07-10T08:25:30;96872.47;;;18.00;64.12
16834;BME280;8533;48.426;10.868;2022-07-10T08:28:04;96874.84;;;18.02;63.63
16834;BME280;8533;48.426;10.868;2022-07-10T08:30:32;96875.37;;;18.04;63.55
16834;BME280;8533;48.426;10.868;2022-07-10T08:33:02;96879.23;;;18.21;62.15
16834;BME280;8533;48.426;10.868;2022-07-10T08:35:30;96874.69;;;18.29;61.93
16834;BME280;8533;48.426;10.868;2022-07-10T08:37:58;96871.03;;;18.59;61.27
16834;BME280;8533;48.426;10.868;2022-07-10T08:40:31;96875.28;;;19.16;58.85
16834;BME280;8533;48.426;10.868;2022-07-10T08:42:57;96860.31;;;20.12;57.42
16834;BME280;8533;48.426;10.868;2022-07-10T08:45:25;96867.79;;;19.92;56.05
16834;BME280;8533;48.426;10.868;2022-07-10T08:47:59;96870.92;;;19.75;55.11
16834;BME280;8533;48.426;10.868;2022-07-10T08:50:26;96862.45;;;19.73;55.55
16834;BME280;8533;48.426;10.868;2022-07-10T08:53:36;96860.59;;;19.73;56.60
16834;BME280;8533;48.426;10.868;2022-07-10T08:55:47;96858.08;;;20.19;54.96
16834;BME280;8533;48.426;10.868;2022-07-10T08:58:15;96865.05;;;20.69;54.05
16834;BME280;8533;48.426;10.868;2022-07-10T09:00:44;96854.60;;;20.59;53.18
16834;BME280;8533;48.426;10.868;2022-07-10T09:03:12;96858.34;;;20.58;53.77
16834;BME280;8533;48.426;10.868;2022-07-10T09:05:39;96851.10;;;21.07;51.81
16834;BME280;8533;48.426;10.868;2022-07-10T09:08:26;96845.37;;;21.30;51.38
16834;BME280;8533;48.426;10.868;2022-07-10T09:11:18;96843.86;;;21.90;50.62
16834;BME280;8533;48.426;10.868;2022-07-10T09:13:54;96847.22;;;21.57;49.18
16834;BME280;8533;48.426;10.868;2022-07-10T09:16:22;96858.08;;;20.73;50.54
16834;BME280;8533;48.426;10.868;2022-07-10T09:18:49;96851.84;;;21.40;49.81
16834;BME280;8533;48.426;10.868;2022-07-10T09:21:17;96853.59;;;21.72;48.54
16834;BME280;8533;48.426;10.868;2022-07-10T09:23:44;96853.31;;;21.85;47.60
16834;BME280;8533;48.426;10.868;2022-07-10T09:26:12;96857.95;;;20.81;49.97
16834;BME280;8533;48.426;10.868;2022-07-10T09:28:39;96850.59;;;20.24;51.47
16834;BME280;8533;48.426;10.868;2022-07-10T09:31:06;96854.38;;;20.02;52.63
16834;BME280;8533;48.426;10.868;2022-07-10T09:33:34;96852.82;;;20.36;54.10
16834;BME280;8533;48.426;10.868;2022-07-10T09:36:12;96843.92;;;20.27;51.51
16834;BME280;8533;48.426;10.868;2022-07-10T09:43:57;96847.84;;;20.29;51.42
16834;BME280;8533;48.426;10.868;2022-07-10T09:46:36;96843.81;;;21.13;48.72
16834;BME280;8533;48.426;10.868;2022-07-10T09:49:05;96851.83;;;21.10;47.42
16834;BME280;8533;48.426;10.868;2022-07-10T09:51:47;96842.61;;;21.74;46.63
16834;BME280;8533;48.426;10.868;2022-07-10T09:54:11;96831.06;;;22.28;44.66
16834;BME280;8533;48.426;10.868;2022-07-10T09:56:44;96838.11;;;21.60;46.79
16834;BME280;8533;48.426;10.868;2022-07-10T09:59:18;96837.00;;;21.23;47.29
16834;BME280;8533;48.426;10.868;2022-07-10T10:01:48;96851.77;;;19.57;52.27
16834;BME280;8533;48.426;10.868;2022-07-10T10:04:21;96853.70;;;19.25;53.37
16834;BME280;8533;48.426;10.868;2022-07-10T10:06:53;96846.47;;;19.30;52.15
16834;BME280;8533;48.426;10.868;2022-07-10T10:09:33;96843.80;;;19.33;53.18
16834;BME280;8533;48.426;10.868;2022-07-10T10:11:57;96847.50;;;19.34;51.97
16834;BME280;8533;48.426;10.868;2022-07-10T10:14:26;96838.24;;;20.14;50.47
16834;BME280;8533;48.426;10.868;2022-07-10T10:16:55;96825.02;;;21.37;48.42
16834;BME280;8533;48.426;10.868;2022-07-10T10:19:24;96760.23;;;22.02;46.54
16834;BME280;8533;48.426;10.868;2022-07-10T10:22:09;96826.84;;;22.91;43.59
16834;BME280;8533;48.426;10.868;2022-07-10T10:24:39;96833.30;;;23.49;41.30
16834;BME280;8533;48.426;10.868;2022-07-10T10:27:08;96831.59;;;22.38;44.62
16834;BME280;8533;48.426;10.868;2022-07-10T10:29:37;96830.41;;;21.73;45.77
16834;BME280;8533;48.426;10.868;2022-07-10T10:32:07;96839.77;;;20.85;46.73
16834;BME280;8533;48.426;10.868;2022-07-10T10:34:41;96834.34;;;20.61;48.11
16834;BME280;8533;48.426;10.868;2022-07-10T10:39:56;96838.16;;;21.83;44.04
16834;BME280;8533;48.426;10.868;2022-07-10T10:42:40;96830.62;;;22.57;42.20
16834;BME280;8533;48.426;10.868;2022-07-10T10:45:25;96837.12;;;23.06;40.93
16834;BME280;8533;48.426;10.868;2022-07-10T10:48:02;96819.77;;;23.06;41.27
16834;BME280;8533;48.426;10.868;2022-07-10T10:50:36;96815.41;;;23.39;40.01
16834;BME280;8533;48.426;10.868;2022-07-10T10:53:01;96827.98;;;22.45;41.72
16834;BME280;8533;48.426;10.868;2022-07-10T10:55:28;96821.30;;;21.62;43.22
16834;BME280;8533;48.426;10.868;2022-07-10T10:58:14;96836.94;;;21.25;43.51
16834;BME280;8533;48.426;10.868;2022-07-10T11:00:38;96830.41;;;20.74;45.00
16834;BME280;8533;48.426;10.868;2022-07-10T11:03:18;96825.61;;;21.20;45.14
16834;BME280;8533;48.426;10.868;2022-07-10T11:05:46;96818.75;;;21.93;42.60
16834;BME280;8533;48.426;10.868;2022-07-10T11:08:16;96815.84;;;21.92;43.17
16834;BME280;8533;48.426;10.868;2022-07-10T11:10:44;96812.48;;;22.78;41.70
16834;BME280;8533;48.426;10.868;2022-07-10T11:13:16;96810.91;;;23.37;41.07
16834;BME280;8533;48.426;10.868;2022-07-10T11:15:45;96804.75;;;24.19;37.74
16834;BME280;8533;48.426;10.868;2022-07-10T11:18:21;96801.36;;;24.50;37.13
16834;BME280;8533;48.426;10.868;2022-07-10T11:20:57;96809.41;;;23.53;38.26
16834;BME280;8533;48.426;10.868;2022-07-10T11:27:09;96815.98;;;22.45;40.88
16834;BME280;8533;48.426;10.868;2022-07-10T11:29:36;96815.82;;;22.06;41.37
16834;BME280;8533;48.426;10.868;2022-07-10T11:32:04;96819.48;;;22.43;41.41
16834;BME280;8533;48.426;10.868;2022-07-10T11:34:35;96811.48;;;21.85;40.68
16834;BME280;8533;48.426;10.868;2022-07-10T11:37:13;96804.79;;;22.66;39.86
16834;BME280;8533;48.426;10.868;2022-07-10T11:39:32;96816.58;;;23.55;39.11
16834;BME280;8533;48.426;10.868;2022-07-10T11:42:00;96823.34;;;23.61;38.95
16834;BME280;8533;48.426;10.868;2022-07-10T11:44:27;96821.75;;;22.92;38.75
16834;BME280;8533;48.426;10.868;2022-07-10T11:46:54;96816.05;;;23.64;38.02
16834;BME280;8533;48.426;10.868;2022-07-10T11:49:23;96811.11;;;22.48;40.03
16834;BME280;8533;48.426;10.868;2022-07-10T11:51:51;96809.06;;;22.78;39.73
16834;BME280;8533;48.426;10.868;2022-07-10T11:54:20;96808.86;;;22.30;39.67
16834;BME280;8533;48.426;10.868;2022-07-10T11:56:48;96814.45;;;22.53;39.80
16834;BME280;8533;48.426;10.868;2022-07-10T11:59:28;96805.78;;;23.01;38.18
16834;BME280;8533;48.426;10.868;2022-07-10T12:01:50;96807.56;;;23.71;36.49
16834;BME280;8533;48.426;10.868;2022-07-10T12:04:19;96812.41;;;23.32;37.16
16834;BME280;8533;48.426;10.868;2022-07-10T12:06:52;96807.55;;;22.52;37.99
16834;BME280;8533;48.426;10.868;2022-07-10T12:09:21;96812.38;;;22.39;39.03
16834;BME280;8533;48.426;10.868;2022-07-10T12:12:02;96807.54;;;22.41;38.98
16834;BME280;8533;48.426;10.868;2022-07-10T12:14:30;96806.50;;;22.39;39.18
16834;BME280;8533;48.426;10.868;2022-07-10T12:16:58;96805.84;;;23.46;37.74
16834;BME280;8533;48.426;10.868;2022-07-10T12:19:28;96808.91;;;23.79;37.63
16834;BME280;8533;48.426;10.868;2022-07-10T12:21:59;96807.91;;;23.30;37.78
16834;BME280;8533;48.426;10.868;2022-07-10T12:24:27;96816.44;;;22.70;39.11
16834;BME280;8533;48.426;10.868;2022-07-10T12:26:55;96817.23;;;22.48;39.14
16834;BME280;8533;48.426;10.868;2022-07-10T12:29:25;96819.24;;;22.76;38.37
16834;BME280;8533;48.426;10.868;2022-07-10T12:32:00;96820.52;;;22.98;38.62
16834;BME280;8533;48.426;10.868;2022-07-10T12:34:33;96807.61;;;23.11;37.48
16834;BME280;8533;48.426;10.868;2022-07-10T12:37:09;96814.39;;;23.57;36.90
16834;BME280;8533;48.426;10.868;2022-07-10T12:39:37;96808.39;;;24.81;35.20
16834;BME280;8533;48.426;10.868;2022-07-10T12:42:06;96809.98;;;25.05;34.73
16834;BME280;8533;48.426;10.868;2022-07-10T12:44:42;96816.60;;;24.99;34.65
16834;BME280;8533;48.426;10.868;2022-07-10T12:49:52;96822.13;;;22.66;38.39
16834;BME280;8533;48.426;10.868;2022-07-10T12:52:25;96819.05;;;22.61;38.78
16834;BME280;8533;48.426;10.868;2022-07-10T12:54:53;96824.00;;;22.65;38.04
16834;BME280;8533;48.426;10.868;2022-07-10T12:57:18;96825.66;;;21.94;38.94
16834;BME280;8533;48.426;10.868;2022-07-10T12:59:45;96821.91;;;21.02;40.12
16834;BME280;8533;48.426;10.868;2022-07-10T13:02:20;96824.58;;;21.95;39.44
16834;BME280;8533;48.426;10.868;2022-07-10T13:04:56;96822.44;;;22.08;38.99
16834;BME280;8533;48.426;10.868;2022-07-10T13:07:32;96818.14;;;22.32;37.93
16834;BME280;8533;48.426;10.868;2022-07-10T13:10:04;96822.67;;;22.65;37.51
16834;BME280;8533;48.426;10.868;2022-07-10T13:12:28;96824.45;;;23.20;37.29
16834;BME280;8533;48.426;10.868;2022-07-10T13:14:55;96828.11;;;23.13;36.91
16834;BME280;8533;48.426;10.868;2022-07-10T13:17:22;96832.88;;;22.86;38.17
16834;BME280;8533;48.426;10.868;2022-07-10T13:19:50;96826.02;;;22.49;38.03
16834;BME280;8533;48.426;10.868;2022-07-10T13:22:18;96819.61;;;22.27;39.30
16834;BME280;8533;48.426;10.868;2022-07-10T13:24:45;96821.50;;;23.02;38.90
16834;BME280;8533;48.426;10.868;2022-07-10T13:27:13;96826.52;;;23.24;36.54
16834;BME280;8533;48.426;10.868;2022-07-10T13:29:41;96818.76;;;24.42;34.51
16834;BME280;8533;48.426;10.868;2022-07-10T13:32:08;96819.14;;;25.33;33.58